Time;durP1;ratioP1;P1;durP2;ratioP2;P2;SDS_P1;SDS_P2;PMS_P1;PMS_P2;Temp;Humidity;BMP_temperature;BMP_pressure;BME280_temperature;BME280_humidity;BME280_pressure;Samples;Min_cycle;Max_cycle;Signal;HPM_P1;HPM_P2
2021/08/16 00:00:16;;;;;;;28.15;13.05;;;13.30;99.90;;;;;;4897378;29;20025;-93
2021/08/16 00:02:45;;;;;;;22.90;12.95;;;13.40;99.90;;;;;;4897596;29;20483;-95
2021/08/16 00:05:11;;;;;;;28.90;13.48;;;13.40;99.90;;;;;;4898420;29;20032;-93
2021/08/16 00:07:37;;;;;;;31.63;12.85;;;13.40;99.90;;;;;;4904198;29;20024;-93
2021/08/16 00:10:04;;;;;;;24.02;12.68;;;13.40;99.90;;;;;;4910979;29;20031;-93
2021/08/16 00:12:31;;;;;;;26.98;13.93;;;13.40;99.90;;;;;;4908013;29;20033;-93
2021/08/16 00:14:59;;;;;;;32.67;14.02;;;13.40;99.90;;;;;;4906115;29;20032;-93
2021/08/16 00:17:25;;;;;;;28.17;12.63;;;13.40;99.90;;;;;;4908345;29;20044;-92
2021/08/16 00:19:51;;;;;;;30.90;15.25;;;13.40;99.90;;;;;;4906780;29;20044;-93
2021/08/16 00:22:17;;;;;;;34.10;15.55;;;13.30;99.90;;;;;;4907486;29;20053;-93
2021/08/16 00:24:44;;;;;;;29.25;15.20;;;13.40;99.90;;;;;;4914564;29;20031;-94
2021/08/16 00:27:09;;;;;;;32.33;15.77;;;13.30;99.90;;;;;;4903727;29;20035;-93
2021/08/16 00:29:35;;;;;;;37.08;16.85;;;13.30;99.90;;;;;;4902423;29;20032;-94
2021/08/16 00:32:01;;;;;;;30.23;15.00;;;13.30;99.90;;;;;;4901637;29;20032;-94
2021/08/16 00:34:29;;;;;;;31.60;16.10;;;13.30;99.90;;;;;;4901149;29;20056;-93
2021/08/16 00:36:54;;;;;;;33.53;15.82;;;13.30;99.90;;;;;;4901070;29;20044;-93
2021/08/16 00:39:20;;;;;;;40.88;19.45;;;13.30;99.90;;;;;;4900999;29;20032;-94
2021/08/16 00:41:49;;;;;;;42.03;19.95;;;13.30;99.90;;;;;;4901779;29;20123;-93
2021/08/16 00:44:15;;;;;;;47.35;22.42;;;13.40;99.90;;;;;;4900914;29;20028;-92
2021/08/16 00:46:41;;;;;;;50.92;24.73;;;13.40;99.90;;;;;;4900939;29;20104;-92
2021/08/16 00:49:07;;;;;;;55.95;25.83;;;13.40;99.90;;;;;;4900696;29;20025;-91
2021/08/16 00:51:35;;;;;;;51.92;24.38;;;13.40;99.90;;;;;;4900656;29;20407;-92
2021/08/16 00:54:06;;;;;;;58.00;26.52;;;13.40;99.90;;;;;;4900691;29;20028;-91
2021/08/16 00:56:32;;;;;;;55.85;27.58;;;13.40;99.90;;;;;;4900730;29;20075;-91
2021/08/16 00:59:00;;;;;;;58.13;25.42;;;13.40;99.90;;;;;;4900794;29;20041;-93
2021/08/16 01:01:26;;;;;;;58.85;25.88;;;13.50;99.90;;;;;;4900678;29;20032;-93
2021/08/16 01:03:52;;;;;;;61.80;27.58;;;13.50;99.90;;;;;;4900928;29;20558;-92
2021/08/16 01:06:21;;;;;;;54.13;26.00;;;13.50;99.90;;;;;;4900570;29;20080;-94
2021/08/16 01:08:48;;;;;;;74.75;29.67;;;13.60;99.90;;;;;;4900547;29;20029;-93
2021/08/16 01:11:18;;;;;;;63.85;29.52;;;13.60;99.90;;;;;;4900783;29;20483;-92
2021/08/16 01:13:45;;;;;;;64.53;30.20;;;13.60;99.90;;;;;;4900624;29;20028;-94
2021/08/16 01:16:11;;;;;;;63.08;30.00;;;13.60;99.90;;;;;;4900617;29;20487;-94
2021/08/16 01:18:37;;;;;;;68.00;29.95;;;13.60;99.90;;;;;;4906310;29;20031;-94
2021/08/16 01:21:10;;;;;;;61.78;27.38;;;13.60;99.90;;;;;;4907397;29;20053;-93
2021/08/16 01:23:38;;;;;;;67.03;29.88;;;13.60;99.90;;;;;;4906064;29;20033;-94
2021/08/16 01:26:04;;;;;;;64.10;29.45;;;13.60;99.90;;;;;;4900309;29;20035;-94
2021/08/16 01:28:33;;;;;;;67.85;28.95;;;13.60;99.90;;;;;;4899922;29;20067;-95
2021/08/16 01:31:01;;;;;;;64.30;29.55;;;13.60;99.90;;;;;;4899874;29;20028;-95
2021/08/16 01:33:28;;;;;;;62.10;26.25;;;13.60;99.90;;;;;;4899569;29;20092;-93
2021/08/16 01:35:54;;;;;;;58.97;26.33;;;13.60;99.90;;;;;;4899121;29;20131;-92
2021/08/16 01:38:27;;;;;;;63.30;27.80;;;13.60;99.90;;;;;;4899867;29;20586;-93
2021/08/16 01:40:53;;;;;;;64.20;28.52;;;13.60;99.90;;;;;;4899439;29;20542;-95
2021/08/16 01:43:19;;;;;;;61.10;28.65;;;13.60;99.90;;;;;;4899462;29;20064;-94
2021/08/16 01:45:45;;;;;;;61.13;29.80;;;13.60;99.90;;;;;;4883821;29;20405;-93
2021/08/16 01:48:15;;;;;;;75.22;28.10;;;13.60;99.90;;;;;;4899195;29;20043;-93
2021/08/16 01:50:42;;;;;;;65.28;28.90;;;13.60;99.90;;;;;;4899607;29;20028;-94
2021/08/16 01:53:07;;;;;;;60.10;25.83;;;13.50;99.90;;;;;;4899337;29;20032;-93
2021/08/16 01:55:33;;;;;;;59.05;26.75;;;13.50;99.90;;;;;;4899172;29;20088;-94
2021/08/16 01:57:59;;;;;;;56.53;25.73;;;13.50;99.90;;;;;;4898836;29;20033;-93
2021/08/16 02:00:25;;;;;;;43.60;18.95;;;13.40;99.90;;;;;;4898742;29;20415;-93
2021/08/16 02:02:50;;;;;;;54.50;24.63;;;13.40;99.90;;;;;;4899011;29;20043;-94
2021/08/16 02:05:16;;;;;;;60.38;24.42;;;13.40;99.90;;;;;;4898854;29;20029;-93
2021/08/16 02:07:44;;;;;;;56.55;24.58;;;13.30;99.90;;;;;;4899058;29;20506;-93
2021/08/16 02:10:10;;;;;;;51.88;22.90;;;13.30;99.90;;;;;;4898917;29;20042;-94
2021/08/16 02:12:36;;;;;;;57.55;22.70;;;13.30;99.90;;;;;;4898951;29;20028;-95
2021/08/16 02:15:04;;;;;;;59.42;25.13;;;13.30;99.90;;;;;;4898937;29;20091;-95
2021/08/16 02:17:30;;;;;;;55.42;22.05;;;13.30;99.90;;;;;;4898401;29;20131;-94
2021/08/16 02:19:55;;;;;;;59.00;23.55;;;13.30;99.90;;;;;;4898987;29;20126;-95
2021/08/16 02:22:21;;;;;;;55.20;24.50;;;13.40;99.90;;;;;;4898638;29;20068;-94
2021/08/16 02:24:47;;;;;;;57.47;23.63;;;13.30;99.90;;;;;;4898456;29;20554;-94
2021/08/16 02:27:13;;;;;;;62.63;25.75;;;13.40;99.90;;;;;;4883018;29;20069;-94
2021/08/16 02:29:38;;;;;;;58.85;22.70;;;13.40;99.90;;;;;;4898746;29;20405;-95
2021/08/16 02:32:04;;;;;;;65.43;26.35;;;13.40;99.90;;;;;;4898596;29;20055;-94
2021/08/16 02:34:30;;;;;;;60.70;24.83;;;13.30;99.90;;;;;;4898206;29;20056;-94
2021/08/16 02:36:56;;;;;;;68.60;26.30;;;13.30;99.90;;;;;;4897967;29;20053;-93
2021/08/16 02:39:22;;;;;;;53.85;20.85;;;13.30;99.90;;;;;;4898078;29;20028;-94
2021/08/16 02:41:47;;;;;;;61.92;23.00;;;13.30;99.90;;;;;;4898339;29;20028;-93
2021/08/16 02:44:13;;;;;;;63.22;24.35;;;13.30;99.90;;;;;;4898450;29;20029;-94
2021/08/16 02:46:39;;;;;;;71.50;25.70;;;13.30;99.90;;;;;;4898090;29;20040;-94
2021/08/16 02:49:07;;;;;;;66.32;24.83;;;13.30;99.90;;;;;;4898194;29;20024;-93
2021/08/16 02:51:36;;;;;;;63.20;24.67;;;13.20;99.90;;;;;;4906075;29;20032;-92
2021/08/16 02:54:01;;;;;;;60.40;24.83;;;13.20;99.90;;;;;;4906283;29;20088;-95
2021/08/16 02:56:27;;;;;;;63.13;24.15;;;13.20;99.90;;;;;;4907730;29;20092;-95
2021/08/16 02:58:53;;;;;;;59.78;25.20;;;13.20;99.90;;;;;;4908823;29;20036;-94
2021/08/16 03:01:18;;;;;;;60.28;24.65;;;13.20;99.90;;;;;;4905144;29;20029;-94
2021/08/16 03:03:44;;;;;;;57.10;23.08;;;13.10;99.90;;;;;;4903242;29;20490;-94
2021/08/16 03:06:10;;;;;;;62.55;24.85;;;13.10;99.90;;;;;;4899241;29;20097;-94
2021/08/16 03:08:36;;;;;;;64.95;24.42;;;13.10;99.90;;;;;;4898751;29;20052;-95
2021/08/16 03:11:04;;;;;;;62.10;25.55;;;13.10;99.90;;;;;;4898606;29;20032;-94
2021/08/16 03:13:30;;;;;;;52.13;21.92;;;13.10;99.90;;;;;;4898571;29;20032;-94
2021/08/16 03:15:56;;;;;;;65.47;27.25;;;13.10;99.90;;;;;;4898541;29;20039;-93
2021/08/16 03:18:22;;;;;;;66.00;27.27;;;13.10;99.90;;;;;;4898820;29;20075;-93
2021/08/16 03:20:48;;;;;;;64.72;25.10;;;13.10;99.90;;;;;;4898485;29;20482;-93
2021/08/16 03:23:13;;;;;;;66.90;27.17;;;13.10;99.90;;;;;;4898063;29;20036;-94
2021/08/16 03:25:39;;;;;;;68.18;26.17;;;13.10;99.90;;;;;;4898281;29;20189;-93
2021/08/16 03:28:07;;;;;;;73.75;29.95;;;13.00;99.90;;;;;;4898524;29;20037;-95
2021/08/16 03:30:33;;;;;;;76.45;29.67;;;13.00;99.90;;;;;;4898728;29;20084;-93
2021/08/16 03:32:59;;;;;;;78.70;29.73;;;13.00;99.90;;;;;;4898001;29;20032;-94
2021/08/16 03:35:24;;;;;;;75.43;29.83;;;13.00;99.90;;;;;;4897954;29;20053;-95
2021/08/16 03:37:50;;;;;;;78.00;29.65;;;13.00;99.90;;;;;;4898143;29;20036;-94
2021/08/16 03:40:16;;;;;;;86.40;33.45;;;13.00;99.90;;;;;;4898307;29;20048;-94
2021/08/16 03:42:41;;;;;;;83.80;30.25;;;13.00;99.90;;;;;;4882519;29;20100;-94
2021/08/16 03:45:16;;;;;;;82.80;31.45;;;13.00;99.90;;;;;;4897628;29;20024;-94
2021/08/16 03:47:43;;;;;;;79.40;29.90;;;13.00;99.90;;;;;;4897655;29;20153;-93
2021/08/16 03:50:10;;;;;;;81.60;29.85;;;13.10;99.90;;;;;;4901164;29;20025;-95
2021/08/16 03:52:38;;;;;;;88.63;33.33;;;13.10;99.90;;;;;;4902028;29;20032;-94
2021/08/16 03:55:05;;;;;;;81.38;29.50;;;13.10;99.90;;;;;;4902097;29;20112;-93
2021/08/16 03:57:30;;;;;;;80.57;30.48;;;13.10;99.90;;;;;;4901366;29;20060;-93
2021/08/16 03:59:56;;;;;;;86.80;31.58;;;13.10;99.90;;;;;;4901249;29;20398;-93
2021/08/16 04:02:22;;;;;;;79.90;31.45;;;13.20;99.90;;;;;;4901898;29;20398;-94
2021/08/16 04:04:48;;;;;;;84.30;30.95;;;13.20;99.90;;;;;;4901480;29;20064;-94
2021/08/16 04:07:14;;;;;;;87.75;33.42;;;13.20;99.90;;;;;;4901409;29;20123;-93
2021/08/16 04:09:39;;;;;;;82.80;31.08;;;13.20;99.90;;;;;;4901338;29;20025;-93
2021/08/16 04:12:05;;;;;;;78.97;29.08;;;13.20;99.90;;;;;;4900959;29;20029;-94
2021/08/16 04:14:31;;;;;;;79.00;29.98;;;13.20;99.90;;;;;;4900801;29;20122;-94
2021/08/16 04:16:57;;;;;;;79.85;31.38;;;13.20;99.90;;;;;;4901104;29;20032;-91
2021/08/16 04:19:23;;;;;;;58.28;22.65;;;13.20;99.90;;;;;;4904053;29;20475;-93
2021/08/16 04:21:49;;;;;;;70.70;27.85;;;13.30;99.90;;;;;;4910967;29;20372;-94
2021/08/16 04:24:15;;;;;;;67.00;24.38;;;13.30;99.90;;;;;;4901932;29;20024;-93
2021/08/16 04:26:40;;;;;;;70.07;27.63;;;13.30;99.90;;;;;;4900996;29;20493;-94
2021/08/16 04:29:06;;;;;;;73.10;28.95;;;13.30;99.90;;;;;;4900946;29;20123;-93
2021/08/16 04:31:33;;;;;;;76.22;28.05;;;13.30;99.90;;;;;;4900445;29;20029;-94
2021/08/16 04:33:59;;;;;;;80.57;31.17;;;13.30;99.90;;;;;;4900275;29;20051;-94
2021/08/16 04:36:25;;;;;;;85.22;31.75;;;13.30;99.90;;;;;;4900208;29;20129;-94
2021/08/16 04:38:50;;;;;;;73.43;27.80;;;13.30;99.90;;;;;;4900519;29;20027;-95
2021/08/16 04:41:16;;;;;;;77.70;28.75;;;13.30;99.90;;;;;;4900161;29;20387;-93
2021/08/16 04:43:42;;;;;;;71.47;28.23;;;13.30;99.90;;;;;;4900150;29;20060;-95
2021/08/16 04:46:08;;;;;;;74.40;30.15;;;13.30;99.90;;;;;;4900736;29;20028;-93
2021/08/16 04:48:33;;;;;;;72.32;29.25;;;13.40;99.90;;;;;;4900581;29;20032;-94
2021/08/16 04:50:59;;;;;;;73.22;28.23;;;13.40;99.90;;;;;;4900304;29;20029;-93
2021/08/16 04:53:25;;;;;;;70.13;28.08;;;13.30;99.90;;;;;;4900424;29;20028;-95
2021/08/16 04:55:50;;;;;;;59.97;24.38;;;13.40;99.90;;;;;;4900076;29;20093;-93
2021/08/16 04:58:16;;;;;;;68.50;27.95;;;13.30;99.90;;;;;;4900090;29;20084;-94
2021/08/16 05:00:42;;;;;;;61.00;24.52;;;13.40;99.90;;;;;;4899502;29;20073;-93
2021/08/16 05:03:08;;;;;;;76.20;29.17;;;13.30;99.90;;;;;;4899889;29;20408;-94
2021/08/16 05:05:37;;;;;;;71.20;28.20;;;13.30;99.90;;;;;;4900161;29;20024;-94
2021/08/16 05:08:03;;;;;;;67.05;24.63;;;13.30;99.90;;;;;;4900110;29;20039;-93
2021/08/16 05:10:30;;;;;;;68.47;29.50;;;13.30;99.90;;;;;;4899960;29;20033;-95
2021/08/16 05:12:58;;;;;;;59.25;23.23;;;13.30;99.90;;;;;;4899616;29;20063;-94
2021/08/16 05:15:28;;;;;;;71.30;27.38;;;13.30;99.90;;;;;;4899817;29;20032;-95
2021/08/16 05:17:53;;;;;;;50.90;20.98;;;13.30;99.90;;;;;;4901183;29;20036;-94
2021/08/16 05:20:20;;;;;;;70.90;26.55;;;13.30;99.90;;;;;;4899480;29;20039;-94
2021/08/16 05:22:47;;;;;;;71.30;28.30;;;13.20;99.90;;;;;;4899401;29;20040;-94
2021/08/16 05:25:14;;;;;;;66.10;27.30;;;13.20;99.90;;;;;;4899438;29;20029;-95
2021/08/16 05:27:41;;;;;;;61.92;26.15;;;13.20;99.90;;;;;;4899375;29;20122;-94
2021/08/16 05:30:08;;;;;;;73.95;27.35;;;13.20;99.90;;;;;;4900260;29;20080;-95
2021/08/16 05:32:34;;;;;;;76.15;28.48;;;13.20;99.90;;;;;;4905664;29;20025;-93
2021/08/16 05:34:59;;;;;;;60.13;25.70;;;13.20;99.90;;;;;;4900760;29;20048;-94
2021/08/16 05:37:25;;;;;;;68.15;26.08;;;13.20;99.90;;;;;;4900614;29;20044;-95
2021/08/16 05:39:50;;;;;;;60.13;26.83;;;13.10;99.90;;;;;;4904511;29;20021;-95
2021/08/16 05:42:17;;;;;;;64.75;24.35;;;13.20;99.90;;;;;;4900738;29;20494;-94
2021/08/16 05:44:43;;;;;;;64.22;25.67;;;13.10;99.90;;;;;;4900787;29;20089;-95
2021/08/16 05:47:09;;;;;;;62.65;24.55;;;13.10;99.90;;;;;;4899761;29;20073;-95
2021/08/16 05:49:35;;;;;;;63.28;26.25;;;13.10;99.90;;;;;;4899282;29;20017;-95
2021/08/16 05:52:01;;;;;;;57.25;26.05;;;13.20;99.90;;;;;;4895834;29;20028;-94
2021/08/16 05:54:27;;;;;;;59.88;23.75;;;13.20;99.90;;;;;;4890208;29;20061;-95
2021/08/16 05:56:53;;;;;;;59.83;25.50;;;13.20;99.90;;;;;;4887357;29;20041;-93
2021/08/16 05:59:18;;;;;;;55.13;22.60;;;13.20;99.90;;;;;;4902940;29;20198;-93
2021/08/16 06:01:44;;;;;;;52.83;24.20;;;13.20;99.90;;;;;;4885482;29;20245;-93
2021/08/16 06:04:10;;;;;;;48.50;19.48;;;13.30;99.90;;;;;;4884966;29;20376;-93
2021/08/16 06:06:36;;;;;;;61.78;23.77;;;13.30;99.90;;;;;;4884820;29;20479;-92
2021/08/16 06:09:05;;;;;;;52.55;23.80;;;13.30;99.90;;;;;;4884647;29;20029;-92
2021/08/16 06:11:32;;;;;;;55.70;22.17;;;13.30;99.90;;;;;;4884425;29;20040;-93
2021/08/16 06:13:57;;;;;;;58.45;24.77;;;13.30;99.90;;;;;;4884200;29;20032;-92
2021/08/16 06:16:26;;;;;;;51.47;20.15;;;13.40;99.90;;;;;;4884251;29;20036;-91
2021/08/16 06:18:52;;;;;;;53.47;21.92;;;13.50;99.90;;;;;;4883961;29;20036;-92
2021/08/16 06:21:18;;;;;;;54.25;21.75;;;13.50;99.90;;;;;;4883892;29;20443;-92
2021/08/16 06:23:44;;;;;;;47.65;18.98;;;13.50;99.90;;;;;;4883648;29;20037;-93
2021/08/16 06:26:10;;;;;;;54.97;21.05;;;13.60;99.90;;;;;;4883847;29;20067;-93
2021/08/16 06:28:36;;;;;;;42.53;19.23;;;13.60;99.90;;;;;;4883789;29;20032;-92
2021/08/16 06:31:02;;;;;;;40.60;18.08;;;13.70;99.90;;;;;;4883434;29;20444;-94
2021/08/16 06:33:28;;;;;;;44.58;19.20;;;13.70;99.90;;;;;;4881520;29;20048;-94
2021/08/16 06:35:54;;;;;;;47.22;19.38;;;13.70;99.90;;;;;;4882794;29;20056;-93
2021/08/16 06:38:23;;;;;;;51.67;19.98;;;13.70;99.90;;;;;;4883103;29;20060;-94
2021/08/16 06:40:51;;;;;;;43.55;18.10;;;13.80;99.90;;;;;;4883518;29;20040;-94
2021/08/16 06:43:17;;;;;;;53.25;19.38;;;13.80;99.90;;;;;;4883023;29;20043;-93
2021/08/16 06:45:47;;;;;;;41.35;18.25;;;13.90;99.90;;;;;;4882778;29;20025;-93
2021/08/16 06:48:14;;;;;;;40.47;16.75;;;14.00;99.90;;;;;;4882651;29;20058;-94
2021/08/16 06:50:40;;;;;;;43.08;18.23;;;14.00;99.90;;;;;;4883121;29;20467;-94
2021/08/16 06:53:06;;;;;;;42.42;17.38;;;14.10;99.90;;;;;;4883032;29;20084;-94
2021/08/16 06:55:32;;;;;;;41.63;15.40;;;14.10;99.90;;;;;;4882469;29;20029;-93
2021/08/16 06:58:00;;;;;;;39.47;15.75;;;14.10;99.90;;;;;;4882395;29;20051;-93
2021/08/16 07:00:26;;;;;;;40.03;15.15;;;14.10;99.90;;;;;;4882879;29;20028;-93
2021/08/16 07:02:51;;;;;;;36.45;15.25;;;14.20;99.90;;;;;;4882455;29;20036;-93
2021/08/16 07:05:17;;;;;;;34.38;14.27;;;14.20;99.90;;;;;;4882491;29;20499;-94
2021/08/16 07:07:43;;;;;;;39.92;14.90;;;14.20;99.90;;;;;;4882152;29;20054;-93
2021/08/16 07:10:09;;;;;;;31.75;13.13;;;14.20;99.90;;;;;;4882206;29;20115;-93
2021/08/16 07:12:35;;;;;;;30.08;12.90;;;14.30;99.90;;;;;;4882674;29;20033;-94
2021/08/16 07:15:02;;;;;;;33.00;13.98;;;14.30;99.90;;;;;;4882275;29;20021;-94
2021/08/16 07:17:27;;;;;;;35.42;12.93;;;14.40;99.90;;;;;;4883083;29;20037;-94
2021/08/16 07:19:53;;;;;;;32.20;13.55;;;14.30;99.90;;;;;;4895562;29;20024;-94
2021/08/16 07:22:18;;;;;;;33.35;12.85;;;14.40;99.90;;;;;;4882992;29;20131;-93
2021/08/16 07:24:44;;;;;;;25.88;11.20;;;14.50;99.90;;;;;;4882026;29;20032;-94
2021/08/16 07:27:10;;;;;;;26.27;11.80;;;14.50;99.90;;;;;;4881977;29;20096;-93
2021/08/16 07:29:36;;;;;;;34.65;11.80;;;14.50;99.90;;;;;;4882191;29;20036;-94
2021/08/16 07:32:01;;;;;;;28.02;11.38;;;14.50;99.90;;;;;;4882177;29;20120;-94
2021/08/16 07:34:29;;;;;;;28.35;10.95;;;14.60;99.90;;;;;;4885858;29;20502;-93
2021/08/16 07:36:55;;;;;;;24.65;10.75;;;14.70;99.90;;;;;;4898044;29;20056;-93
2021/08/16 07:39:22;;;;;;;24.17;10.60;;;14.80;99.90;;;;;;4897279;29;20029;-93
2021/08/16 07:41:48;;;;;;;28.08;10.90;;;14.80;99.90;;;;;;4897508;29;20542;-95
2021/08/16 07:44:15;;;;;;;26.15;10.02;;;14.90;99.90;;;;;;4897923;29;20048;-94
2021/08/16 07:46:41;;;;;;;27.27;9.27;;;14.90;99.90;;;;;;4897661;29;20541;-94
2021/08/16 07:49:07;;;;;;;26.00;9.65;;;14.90;99.90;;;;;;4897746;29;20067;-94
2021/08/16 07:51:33;;;;;;;20.50;9.10;;;14.90;99.90;;;;;;4897514;29;20058;-95
2021/08/16 07:53:59;;;;;;;21.55;8.68;;;14.90;99.90;;;;;;4898437;29;20498;-94
2021/08/16 07:56:24;;;;;;;25.60;8.93;;;14.90;99.90;;;;;;4913057;29;20039;-95
2021/08/16 07:58:50;;;;;;;19.60;9.07;;;14.90;99.90;;;;;;4897321;29;20039;-95
2021/08/16 08:01:17;;;;;;;31.88;11.60;;;14.90;99.90;;;;;;4897756;29;20032;-91
2021/08/16 08:03:43;;;;;;;22.38;9.15;;;14.90;99.90;;;;;;4897491;29;20028;-93
2021/08/16 08:06:12;;;;;;;24.10;9.50;;;14.90;99.90;;;;;;4897843;29;20063;-95
2021/08/16 08:08:38;;;;;;;18.88;9.13;;;14.90;99.90;;;;;;4897642;29;20032;-94
2021/08/16 08:11:03;;;;;;;17.50;8.77;;;14.90;99.90;;;;;;4897485;29;20032;-94
2021/08/16 08:13:32;;;;;;;21.80;9.50;;;14.90;99.90;;;;;;4913221;29;20036;-93
2021/08/16 08:15:57;;;;;;;22.00;9.52;;;14.90;99.90;;;;;;4897300;29;20029;-93
2021/08/16 08:18:23;;;;;;;26.33;9.38;;;14.90;99.90;;;;;;4899311;29;20044;-94
2021/08/16 08:20:49;;;;;;;21.75;9.50;;;14.90;99.90;;;;;;4919216;29;20127;-93
2021/08/16 08:23:18;;;;;;;24.33;9.98;;;14.90;99.90;;;;;;4904597;29;20123;-93
2021/08/16 08:25:45;;;;;;;21.35;10.10;;;14.90;99.90;;;;;;4907594;29;20031;-93
2021/08/16 08:28:15;;;;;;;29.58;10.07;;;14.90;99.90;;;;;;4908609;29;20056;-93
2021/08/16 08:30:45;;;;;;;25.60;10.88;;;14.90;99.90;;;;;;4908825;29;20028;-93
2021/08/16 08:33:12;;;;;;;27.05;11.57;;;14.90;99.90;;;;;;4914290;29;20027;-93
2021/08/16 08:35:38;;;;;;;20.80;8.43;;;15.00;99.90;;;;;;4914671;29;20648;-94
2021/08/16 08:38:04;;;;;;;25.15;11.75;;;15.00;99.90;;;;;;4914328;29;20124;-94
2021/08/16 08:40:33;;;;;;;25.23;12.30;;;15.00;99.90;;;;;;4912631;29;20028;-93
2021/08/16 08:42:59;;;;;;;24.23;10.73;;;15.00;99.90;;;;;;4909615;29;20103;-93
2021/08/16 08:45:27;;;;;;;28.00;12.68;;;15.00;99.90;;;;;;4909106;29;20543;-92
2021/08/16 08:47:54;;;;;;;31.90;13.10;;;15.00;99.90;;;;;;4909894;29;20048;-93
2021/08/16 08:50:20;;;;;;;31.30;11.70;;;15.00;99.90;;;;;;4908598;29;20044;-93
2021/08/16 08:52:50;;;;;;;27.95;13.07;;;14.90;99.90;;;;;;4905473;29;20065;-94
2021/08/16 08:55:19;;;;;;;25.45;11.32;;;14.90;99.90;;;;;;4903022;29;20447;-94
2021/08/16 08:57:44;;;;;;;29.95;13.13;;;14.90;99.90;;;;;;4903347;29;20076;-93
2021/08/16 09:00:16;;;;;;;24.77;11.82;;;14.80;99.90;;;;;;4902602;29;20487;-93
2021/08/16 09:03:03;;;;;;;32.53;12.63;;;14.70;99.90;;;;;;4904209;29;20032;-94
2021/08/16 09:05:29;;;;;;;25.85;12.00;;;14.70;99.90;;;;;;4902700;29;20036;-94
2021/08/16 09:07:58;;;;;;;28.95;12.68;;;14.70;99.90;;;;;;4903037;29;20100;-94
2021/08/16 09:10:25;;;;;;;28.52;12.00;;;14.70;99.90;;;;;;4888412;29;20033;-93
2021/08/16 09:12:56;;;;;;;30.02;12.00;;;14.70;99.90;;;;;;4902939;29;20037;-93
2021/08/16 09:15:23;;;;;;;32.08;13.93;;;14.70;99.90;;;;;;4902708;29;20021;-93
2021/08/16 09:17:50;;;;;;;32.80;11.85;;;14.70;99.90;;;;;;4904175;29;20040;-94
2021/08/16 09:20:25;;;;;;;34.60;13.95;;;14.80;99.90;;;;;;4903718;29;20025;-93
2021/08/16 09:23:07;;;;;;;31.83;12.43;;;14.90;99.90;;;;;;4904238;29;20511;-93
2021/08/16 09:25:35;;;;;;;27.58;11.75;;;15.00;99.90;;;;;;4903659;29;20039;-94
2021/08/16 09:28:02;;;;;;;30.20;13.10;;;15.00;99.90;;;;;;4903512;29;20024;-94
2021/08/16 09:30:31;;;;;;;32.90;13.05;;;15.00;99.90;;;;;;4902800;29;20035;-94
2021/08/16 09:32:57;;;;;;;30.17;14.27;;;15.00;99.90;;;;;;4902613;29;20063;-94
2021/08/16 09:35:23;;;;;;;33.72;14.10;;;15.00;99.90;;;;;;4903150;29;20048;-93
2021/08/16 09:37:58;;;;;;;33.88;13.98;;;15.00;99.90;;;;;;4902224;29;20055;-94
2021/08/16 09:40:24;;;;;;;33.83;13.73;;;14.90;99.90;;;;;;4903510;29;20029;-93
2021/08/16 09:42:50;;;;;;;30.83;13.73;;;14.90;99.90;;;;;;4901680;29;20084;-91
2021/08/16 09:45:30;;;;;;;32.22;14.43;;;14.90;99.90;;;;;;4901941;29;20031;-93
2021/08/16 09:47:58;;;;;;;27.77;12.52;;;15.00;99.90;;;;;;4904850;29;20440;-92
2021/08/16 09:50:41;;;;;;;31.40;12.68;;;15.00;99.90;;;;;;4908005;29;20028;-94
2021/08/16 09:53:19;;;;;;;29.15;12.27;;;15.00;99.90;;;;;;4907538;29;20036;-94
2021/08/16 09:55:47;;;;;;;33.35;15.40;;;15.00;99.90;;;;;;4909037;29;20174;-94
2021/08/16 09:58:22;;;;;;;29.15;13.73;;;15.00;99.90;;;;;;4906860;29;20184;-94
2021/08/16 10:00:51;;;;;;;30.95;13.35;;;15.00;99.90;;;;;;4903680;29;20020;-93
2021/08/16 10:03:17;;;;;;;35.53;14.13;;;15.00;99.90;;;;;;4903634;29;20136;-92
2021/08/16 10:05:47;;;;;;;32.10;13.98;;;14.90;99.90;;;;;;4904646;29;20085;-92
2021/08/16 10:08:19;;;;;;;35.42;13.82;;;14.90;99.90;;;;;;4904261;29;20431;-92
2021/08/16 10:10:51;;;;;;;33.45;14.40;;;14.90;99.90;;;;;;4902699;29;20025;-93
2021/08/16 10:13:28;;;;;;;31.90;13.35;;;14.90;99.90;;;;;;4903581;29;20060;-93
2021/08/16 10:16:00;;;;;;;35.47;15.05;;;15.00;99.90;;;;;;4905013;29;20055;-93
2021/08/16 10:19:01;;;;;;;34.55;14.45;;;14.90;99.90;;;;;;4914843;29;20036;-95
2021/08/16 10:21:28;;;;;;;28.48;12.80;;;14.90;99.90;;;;;;4900116;29;20108;-94
2021/08/16 10:23:55;;;;;;;29.73;11.90;;;15.00;99.90;;;;;;4902722;29;20483;-95
2021/08/16 10:26:32;;;;;;;25.50;13.02;;;15.00;99.90;;;;;;4903341;29;20028;-94
2021/08/16 10:29:10;;;;;;;20.95;9.95;;;15.10;99.90;;;;;;4905122;29;20036;-94
2021/08/16 10:31:38;;;;;;;27.67;12.98;;;15.20;99.90;;;;;;4907696;29;20033;-95
2021/08/16 10:34:07;;;;;;;25.95;12.18;;;15.20;99.90;;;;;;4905108;29;20040;-93
2021/08/16 10:36:33;;;;;;;28.55;12.40;;;15.30;99.90;;;;;;4887820;29;20304;-95
2021/08/16 10:39:01;;;;;;;28.25;12.80;;;15.40;99.90;;;;;;4886563;29;20217;-95
2021/08/16 10:41:42;;;;;;;25.40;12.98;;;15.50;99.90;;;;;;4885746;29;20048;-94
2021/08/16 10:44:13;;;;;;;27.15;12.65;;;15.70;99.90;;;;;;4886226;29;20299;-95
2021/08/16 10:46:40;;;;;;;26.48;13.27;;;15.90;99.90;;;;;;4886268;29;20036;-94
2021/08/16 10:49:12;;;;;;;28.50;12.52;;;16.00;99.90;;;;;;4884521;29;20103;-94
2021/08/16 10:51:39;;;;;;;23.77;11.07;;;16.20;99.90;;;;;;4885849;29;20041;-96
2021/08/16 10:54:28;;;;;;;28.00;12.23;;;16.20;99.90;;;;;;4887791;29;20037;-96
2021/08/16 10:57:02;;;;;;;25.30;10.80;;;16.20;99.90;;;;;;4887192;29;20056;-94
2021/08/16 10:59:30;;;;;;;33.08;12.25;;;16.30;99.90;;;;;;4882953;29;20047;-94
2021/08/16 11:01:57;;;;;;;26.52;12.98;;;16.30;99.90;;;;;;4884227;29;20021;-94
2021/08/16 11:04:45;;;;;;;29.20;13.20;;;16.30;99.90;;;;;;4884213;29;20032;-95
2021/08/16 11:07:27;;;;;;;30.50;13.63;;;16.40;99.90;;;;;;4886919;29;20032;-96
2021/08/16 11:10:09;;;;;;;27.95;12.23;;;16.40;99.90;;;;;;4887433;29;20111;-95
2021/08/16 11:12:45;;;;;;;27.90;14.13;;;16.40;99.90;;;;;;4905953;29;20102;-95
2021/08/16 11:15:12;;;;;;;29.52;14.15;;;16.40;99.90;;;;;;4883814;29;20028;-92
2021/08/16 11:17:38;;;;;;;30.60;14.90;;;16.40;99.90;;;;;;4883394;29;20040;-93
2021/08/16 11:20:16;;;;;;;28.40;12.95;;;16.50;99.90;;;;;;4883779;29;20513;-93
2021/08/16 11:22:53;;;;;;;31.25;13.00;;;16.60;99.90;;;;;;4883899;29;20028;-92
2021/08/16 11:25:19;;;;;;;25.17;12.68;;;16.90;99.90;;;;;;4884702;29;20036;-93
2021/08/16 11:27:45;;;;;;;25.80;13.60;;;17.10;99.90;;;;;;4885105;29;20025;-93
2021/08/16 11:30:13;;;;;;;28.08;14.13;;;17.10;99.90;;;;;;4885288;29;20028;-93
2021/08/16 11:32:41;;;;;;;24.92;13.38;;;17.30;99.80;;;;;;4885251;29;20047;-91
2021/08/16 11:35:09;;;;;;;31.65;13.27;;;17.70;99.40;;;;;;4883459;29;20057;-92
2021/08/16 11:37:41;;;;;;;26.83;13.65;;;17.90;98.60;;;;;;4888739;29;20044;-92
2021/08/16 11:40:08;;;;;;;26.05;13.48;;;18.10;97.60;;;;;;4893601;29;20021;-93
2021/08/16 11:42:33;;;;;;;27.48;12.48;;;18.30;96.80;;;;;;4891680;29;20092;-92
2021/08/16 11:45:06;;;;;;;25.80;13.38;;;18.50;96.30;;;;;;4890571;29;20048;-92
2021/08/16 11:47:43;;;;;;;31.45;12.65;;;18.60;95.40;;;;;;4890092;29;20047;-94
2021/08/16 11:50:14;;;;;;;29.52;15.20;;;18.50;94.50;;;;;;4887946;29;20084;-95
2021/08/16 11:52:41;;;;;;;27.75;14.52;;;18.40;94.00;;;;;;4883963;29;20039;-93
2021/08/16 11:55:08;;;;;;;28.27;13.85;;;18.40;94.10;;;;;;4883486;29;20485;-93
2021/08/16 11:57:36;;;;;;;29.88;14.73;;;18.50;94.10;;;;;;4882857;29;20050;-92
2021/08/16 12:00:04;;;;;;;23.35;12.00;;;18.60;94.10;;;;;;4883396;29;20029;-93
2021/08/16 12:02:40;;;;;;;27.88;14.07;;;18.70;93.10;;;;;;4883288;29;20029;-92
2021/08/16 12:05:07;;;;;;;25.20;12.00;;;18.80;92.20;;;;;;4883278;29;20020;-92
2021/08/16 12:07:34;;;;;;;22.17;11.73;;;18.80;91.70;;;;;;4882960;29;20025;-92
2021/08/16 12:09:59;;;;;;;26.13;13.63;;;18.80;91.20;;;;;;4883760;29;20072;-92
2021/08/16 12:12:27;;;;;;;30.02;14.30;;;18.70;91.00;;;;;;4886272;29;20036;-92
2021/08/16 12:15:02;;;;;;;30.25;14.35;;;18.60;91.00;;;;;;4885766;29;20044;-94
2021/08/16 12:17:28;;;;;;;31.48;15.70;;;18.40;91.20;;;;;;4885756;29;20072;-92
2021/08/16 12:19:58;;;;;;;33.35;16.67;;;18.20;91.40;;;;;;4886020;29;20048;-92
2021/08/16 12:22:23;;;;;;;33.05;13.20;;;18.20;91.90;;;;;;4886164;29;20064;-93
2021/08/16 12:25:08;;;;;;;24.52;12.43;;;18.30;92.30;;;;;;4886237;29;20056;-92
2021/08/16 12:27:35;;;;;;;25.80;13.43;;;18.20;92.30;;;;;;4885753;29;20032;-93
2021/08/16 12:30:01;;;;;;;37.15;15.98;;;18.20;92.30;;;;;;4885544;29;20471;-93